Time;durP1;ratioP1;P1;durP2;ratioP2;P2;SDS_P1;SDS_P2;PMS_P1;PMS_P2;Temp;Humidity;BMP_temperature;BMP_pressure;BME280_temperature;BME280_humidity;BME280_pressure;Samples;Min_cycle;Max_cycle;Signal;HPM_P1;HPM_P2
2021/01/31 00:00:22;;;;;;;15.65;10.05;;;;;;;-0.50;57.85;95114.58;1636686;85;20246;-54
2021/01/31 00:02:50;;;;;;;15.68;10.85;;;;;;;-0.56;57.74;95114.45;1620754;87;21173;-53
2021/01/31 00:05:18;;;;;;;19.20;12.15;;;;;;;-0.58;57.92;95110.31;1619056;88;21616;-54
2021/01/31 00:07:46;;;;;;;15.03;10.60;;;;;;;-0.62;58.12;95102.02;1619480;87;21155;-54
2021/01/31 00:10:19;;;;;;;16.70;11.03;;;;;;;-0.63;58.07;95101.63;1638496;87;21516;-54
2021/01/31 00:12:47;;;;;;;17.52;11.22;;;;;;;-0.65;58.34;95103.89;1641434;87;21521;-55
2021/01/31 00:15:17;;;;;;;15.95;10.88;;;;;;;-0.66;58.34;95111.99;1645084;86;21106;-55
2021/01/31 00:17:45;;;;;;;18.25;10.18;;;;;;;-0.69;58.27;95107.48;1633313;86;21225;-55
2021/01/31 00:20:16;;;;;;;15.05;10.05;;;;;;;-0.74;58.21;95098.81;1621270;87;21113;-54
2021/01/31 00:22:43;;;;;;;12.75;8.78;;;;;;;-0.80;58.35;95101.66;1622730;87;21185;-54
2021/01/31 00:25:12;;;;;;;13.85;8.68;;;;;;;-0.87;57.74;95113.88;1663810;85;21579;-55
2021/01/31 00:27:40;;;;;;;13.95;9.40;;;;;;;-0.90;57.61;95119.11;1651885;86;21135;-53
2021/01/31 00:30:26;;;;;;;15.90;9.95;;;;;;;-0.88;57.44;95133.86;1655177;86;21203;-54
2021/01/31 00:32:55;;;;;;;15.95;10.55;;;;;;;-0.84;57.71;95124.34;1643610;87;21533;-55
2021/01/31 00:35:26;;;;;;;15.68;10.60;;;;;;;-0.79;57.70;95132.58;1645578;87;21113;-54
2021/01/31 00:37:54;;;;;;;19.65;11.33;;;;;;;-0.74;57.73;95125.56;1638441;85;21136;-54
2021/01/31 00:40:22;;;;;;;14.50;10.23;;;;;;;-0.70;57.62;95127.04;1644539;87;21148;-54
2021/01/31 00:42:49;;;;;;;16.87;10.75;;;;;;;-0.68;57.74;95140.52;1626395;87;22940;-54
2021/01/31 00:45:20;;;;;;;17.62;11.20;;;;;;;-0.68;57.92;95149.44;1620925;87;21117;-54
2021/01/31 00:47:48;;;;;;;16.65;10.65;;;;;;;-0.62;58.19;95141.95;1621048;87;21146;-54
2021/01/31 00:50:24;;;;;;;16.27;11.08;;;;;;;-0.52;58.02;95135.49;1629987;87;21534;-54
2021/01/31 00:52:53;;;;;;;18.00;10.60;;;;;;;-0.45;57.95;95135.55;1644042;87;21097;-54
2021/01/31 00:55:21;;;;;;;17.42;10.85;;;;;;;-0.40;57.72;95141.70;1634271;87;21291;-54
2021/01/31 00:57:49;;;;;;;16.52;11.28;;;;;;;-0.35;57.48;95147.38;1632813;86;21221;-54
2021/01/31 01:00:22;;;;;;;16.23;11.53;;;;;;;-0.37;57.56;95153.83;1640614;85;21098;-55
2021/01/31 01:02:49;;;;;;;17.27;11.53;;;;;;;-0.34;57.70;95150.31;1633427;87;21942;-54
2021/01/31 01:05:22;;;;;;;15.80;11.05;;;;;;;-0.31;57.80;95160.36;1645696;87;21161;-56
2021/01/31 01:07:50;;;;;;;17.52;11.65;;;;;;;-0.22;57.85;95170.06;1630029;87;21586;-56
2021/01/31 01:10:22;;;;;;;16.32;10.40;;;;;;;-0.15;57.55;95168.03;1621035;87;21695;-56
2021/01/31 01:12:49;;;;;;;16.32;10.68;;;;;;;-0.14;57.17;95172.70;1637480;87;21521;-55
2021/01/31 01:15:18;;;;;;;17.70;11.35;;;;;;;-0.16;57.25;95176.59;1642171;87;21125;-54
2021/01/31 01:17:46;;;;;;;15.50;11.38;;;;;;;-0.14;57.43;95182.89;1633236;86;21109;-55
2021/01/31 01:20:14;;;;;;;17.02;11.65;;;;;;;-0.06;57.45;95181.59;1643736;87;21224;-55
2021/01/31 01:22:42;;;;;;;16.12;11.30;;;;;;;-0.02;57.17;95179.27;1637114;85;21609;-54
2021/01/31 01:25:11;;;;;;;16.00;11.60;;;;;;;-0.03;57.13;95176.34;1643226;87;21111;-55
2021/01/31 01:27:38;;;;;;;;;;;;;;;0.00;57.34;95189.40;1635605;87;21227;-55
2021/01/31 01:30:09;;;;;;;17.27;11.15;;;;;;;0.07;57.26;95191.18;1619731;87;20236;-55
2021/01/31 01:32:37;;;;;;;16.85;11.08;;;;;;;0.10;57.05;95192.27;1634145;85;21221;-55
2021/01/31 01:35:07;;;;;;;15.58;9.85;;;;;;;0.14;56.93;95192.50;1635284;86;21553;-54
2021/01/31 01:37:35;;;;;;;15.88;10.35;;;;;;;0.17;56.87;95194.90;1633610;87;21191;-54
2021/01/31 01:40:08;;;;;;;14.47;9.50;;;;;;;0.22;56.82;95201.05;1637176;87;21106;-55
2021/01/31 01:42:35;;;;;;;17.23;10.25;;;;;;;0.27;56.23;95198.61;1619647;87;21101;-55
2021/01/31 01:47:47;;;;;;;17.17;10.65;;;;;;;0.24;56.88;95206.88;1622157;87;21223;-54
2021/01/31 01:50:26;;;;;;;19.32;11.18;;;;;;;0.31;56.64;95212.03;1641032;87;21185;-55
2021/01/31 01:52:57;;;;;;;17.52;11.28;;;;;;;0.33;56.42;95204.68;1623852;88;21527;-54
2021/01/31 01:55:25;;;;;;;13.90;10.25;;;;;;;0.40;56.52;95199.26;1642712;87;21112;-54
2021/01/31 01:58:04;;;;;;;13.88;9.98;;;;;;;0.47;56.22;95205.68;1622392;87;22271;-54
2021/01/31 02:00:33;;;;;;;15.28;10.58;;;;;;;0.50;56.17;95203.78;1640333;86;21208;-55
2021/01/31 02:03:05;;;;;;;14.75;10.20;;;;;;;0.54;55.88;95213.38;1648558;86;21484;-54
2021/01/31 02:05:33;;;;;;;15.43;9.15;;;;;;;0.55;55.78;95208.19;1639987;87;21093;-53
2021/01/31 02:08:01;;;;;;;13.80;9.70;;;;;;;0.58;55.68;95207.22;1625614;87;21142;-54
2021/01/31 02:10:29;;;;;;;11.45;9.00;;;;;;;0.62;55.58;95207.87;1620358;85;21452;-54
2021/01/31 02:13:02;;;;;;;14.90;9.65;;;;;;;0.62;55.35;95204.03;1631079;87;21154;-54
2021/01/31 02:15:29;;;;;;;13.10;9.60;;;;;;;0.60;55.19;95208.41;1653203;85;21179;-54
2021/01/31 02:18:15;;;;;;;13.90;10.13;;;;;;;0.58;55.44;95212.78;1649105;85;21149;-54
2021/01/31 02:21:08;;;;;;;14.33;9.10;;;;;;;0.61;55.50;95215.14;1633547;86;21095;-54
2021/01/31 02:24:16;;;;;;;12.55;9.23;;;;;;;0.62;55.41;95223.19;1633987;86;21358;-53
2021/01/31 02:27:05;;;;;;;14.28;9.15;;;;;;;0.64;55.25;95229.87;1632032;86;21141;-54
2021/01/31 02:30:02;;;;;;;;;;;;;;;0.67;55.00;95230.14;1612242;88;21108;-55
2021/01/31 02:33:09;;;;;;;15.00;9.13;;;;;;;0.66;55.02;95237.45;1647808;87;20226;-54
2021/01/31 02:35:37;;;;;;;13.03;9.55;;;;;;;0.64;55.00;95226.47;1620933;88;21180;-54
2021/01/31 02:38:30;;;;;;;12.20;8.43;;;;;;;0.61;55.21;95233.02;1637028;86;21596;-55
2021/01/31 02:41:08;;;;;;;12.88;9.30;;;;;;;0.62;55.26;95230.84;1637524;87;21248;-55
2021/01/31 02:43:49;;;;;;;13.73;9.00;;;;;;;0.66;55.35;95232.34;1601997;88;21216;-55
2021/01/31 02:46:28;;;;;;;12.90;9.03;;;;;;;0.65;55.25;95235.79;1632353;87;21433;-55
2021/01/31 02:49:22;;;;;;;12.65;9.33;;;;;;;0.63;55.31;95236.33;1636179;86;21607;-55
2021/01/31 02:52:11;;;;;;;13.03;8.63;;;;;;;0.61;55.38;95232.58;1624790;87;21529;-55
2021/01/31 02:54:55;;;;;;;;;;;;;;;0.64;55.12;95227.75;1621541;87;21212;-55
2021/01/31 02:58:12;;;;;;;13.72;8.58;;;;;;;0.67;55.05;95236.06;1635523;87;20230;-54
2021/01/31 03:01:22;;;;;;;13.22;8.83;;;;;;;0.67;54.96;95228.41;1644547;87;21968;-55
2021/01/31 03:04:10;;;;;;;15.30;8.55;;;;;;;0.65;55.12;95226.39;1732464;81;21070;-54
2021/01/31 03:06:43;;;;;;;13.55;9.33;;;;;;;0.65;55.01;95217.92;1751385;81;27105;-55
2021/01/31 03:09:28;;;;;;;12.13;8.55;;;;;;;0.68;55.15;95227.97;1744363;81;21145;-55
2021/01/31 03:12:04;;;;;;;9.13;6.67;;;;;;;0.70;55.00;95229.52;1736974;81;21601;-54
2021/01/31 03:14:43;;;;;;;12.10;7.97;;;;;;;0.71;54.08;95235.01;1744949;81;21153;-54
2021/01/31 03:17:17;;;;;;;;;;;;;;;0.72;53.96;95229.44;1732909;81;21664;-54
2021/01/31 03:20:07;;;;;;;13.40;8.40;;;;;;;0.72;54.00;95225.18;1730253;83;21363;-54
2021/01/31 03:22:42;;;;;;;13.13;8.53;;;;;;;0.73;54.05;95228.55;1739146;81;21571;-55
2021/01/31 03:25:20;;;;;;;11.33;7.58;;;;;;;0.76;54.20;95232.64;1728076;83;21090;-55
2021/01/31 03:27:47;;;;;;;12.00;7.85;;;;;;;0.76;54.15;95228.38;1710423;81;21079;-54
2021/01/31 03:30:17;;;;;;;9.88;7.42;;;;;;;0.75;53.81;95228.00;1732628;81;21077;-54
2021/01/31 03:32:49;;;;;;;10.85;7.42;;;;;;;0.74;53.97;95223.82;1732524;81;21927;-55
2021/01/31 03:35:40;;;;;;;10.82;7.47;;;;;;;0.74;53.71;95216.16;1721002;83;21102;-54
2021/01/31 03:38:28;;;;;;;11.15;7.42;;;;;;;0.77;53.72;95222.81;1704950;83;21185;-53
2021/01/31 03:41:00;;;;;;;11.37;7.33;;;;;;;0.78;53.43;95213.80;1716208;83;21514;-55
2021/01/31 03:43:27;;;;;;;10.90;7.33;;;;;;;0.72;53.52;95217.95;1726718;83;21693;-55
2021/01/31 03:46:44;;;;;;;11.57;7.42;;;;;;;0.70;53.25;95223.59;1703405;83;21386;-55
2021/01/31 03:49:31;;;;;;;11.65;7.00;;;;;;;0.67;53.41;95221.20;1709548;81;21141;-54
2021/01/31 03:51:59;;;;;;;10.20;7.50;;;;;;;0.65;53.57;95228.13;1701628;83;21114;-54
2021/01/31 03:54:26;;;;;;;11.45;7.50;;;;;;;0.62;53.68;95226.55;1681175;84;21077;-54
2021/01/31 03:57:12;;;;;;;9.10;6.53;;;;;;;0.62;53.89;95231.66;1707243;83;21158;-54
2021/01/31 03:59:51;;;;;;;8.33;6.25;;;;;;;0.66;53.75;95229.79;1727620;83;22772;-54
2021/01/31 04:02:23;;;;;;;12.88;7.53;;;;;;;0.69;53.70;95234.70;1717659;83;21704;-55
2021/01/31 04:04:51;;;;;;;9.70;7.33;;;;;;;0.62;53.54;95245.70;1729764;83;21196;-54
2021/01/31 04:07:29;;;;;;;10.20;7.10;;;;;;;0.59;53.96;95252.70;1697096;84;21094;-53
2021/01/31 04:09:58;;;;;;;8.55;6.70;;;;;;;0.56;53.75;95262.63;1726814;83;21497;-54
2021/01/31 04:12:26;;;;;;;12.25;7.97;;;;;;;0.51;54.01;95264.14;1673183;83;21376;-54
2021/01/31 04:15:26;;;;;;;11.53;7.53;;;;;;;0.51;54.28;95269.67;1708384;83;21133;-54
2021/01/31 04:17:53;;;;;;;11.22;7.80;;;;;;;0.51;54.12;95271.80;1717198;81;21602;-54
2021/01/31 04:20:20;;;;;;;13.03;7.60;;;;;;;0.47;54.30;95278.41;1702909;83;21165;-54
2021/01/31 04:22:48;;;;;;;11.83;7.78;;;;;;;0.47;54.32;95291.98;1707357;81;21109;-57
2021/01/31 04:25:17;;;;;;;10.78;7.53;;;;;;;0.48;54.32;95290.28;1729703;83;21155;-57
2021/01/31 04:27:45;;;;;;;10.98;7.35;;;;;;;0.48;54.40;95291.56;1711758;83;21105;-54
2021/01/31 04:30:14;;;;;;;11.22;7.35;;;;;;;0.53;54.42;95294.69;1711545;83;21196;-55
2021/01/31 04:32:43;;;;;;;11.15;7.78;;;;;;;0.59;54.21;95303.75;1726313;83;21081;-55
2021/01/31 04:35:12;;;;;;;9.38;6.65;;;;;;;0.60;54.03;95300.30;1729859;81;21573;-56
2021/01/31 04:37:40;;;;;;;9.88;7.17;;;;;;;0.59;53.99;95296.09;1708870;83;21207;-55
2021/01/31 04:40:11;;;;;;;10.45;7.30;;;;;;;0.57;54.18;95297.91;1718171;83;21523;-55
2021/01/31 04:42:40;;;;;;;10.05;6.90;;;;;;;0.60;54.19;95297.29;1717975;83;21134;-55
2021/01/31 04:45:11;;;;;;;9.53;6.67;;;;;;;0.64;54.05;95297.52;1725123;83;21620;-55
2021/01/31 04:48:02;;;;;;;8.85;6.45;;;;;;;0.62;54.02;95294.66;1727982;83;21093;-55
2021/01/31 04:50:43;;;;;;;9.53;6.37;;;;;;;0.62;54.00;95294.66;1727867;83;21382;-55
2021/01/31 04:53:28;;;;;;;9.73;6.60;;;;;;;0.63;53.95;95302.23;1714795;83;21137;-55
2021/01/31 04:56:07;;;;;;;8.80;6.35;;;;;;;0.65;53.83;95300.42;1723834;81;21093;-55
2021/01/31 04:58:48;;;;;;;9.50;6.30;;;;;;;0.67;53.84;95295.23;1712396;83;21158;-53
2021/01/31 05:01:28;;;;;;;8.43;6.60;;;;;;;0.69;53.73;95307.47;1728035;83;21070;-53
2021/01/31 05:04:03;;;;;;;8.58;6.47;;;;;;;0.67;53.71;95306.27;1730120;83;21441;-56
2021/01/31 05:06:38;;;;;;;9.18;6.15;;;;;;;0.68;53.57;95302.82;1728852;83;21204;-55
2021/01/31 05:09:06;;;;;;;11.60;7.12;;;;;;;0.69;53.63;95300.66;1730330;83;21081;-54
2021/01/31 05:12:06;;;;;;;11.57;6.17;;;;;;;0.68;53.50;95304.09;1704582;83;21185;-54
2021/01/31 05:15:21;;;;;;;8.60;6.50;;;;;;;0.67;53.78;95305.45;1664051;83;21578;-54
2021/01/31 05:17:50;;;;;;;9.50;6.67;;;;;;;0.69;53.83;95310.02;1696788;83;21390;-55
2021/01/31 05:20:28;;;;;;;9.53;6.78;;;;;;;0.68;53.86;95314.31;1713903;83;21105;-54
2021/01/31 05:22:58;;;;;;;9.67;6.23;;;;;;;0.69;53.75;95325.34;1701486;83;21093;-55
2021/01/31 05:25:29;;;;;;;11.43;6.55;;;;;;;0.63;53.92;95331.59;1718688;81;21404;-56
2021/01/31 05:27:59;;;;;;;9.38;6.53;;;;;;;0.62;54.02;95335.04;1712126;83;21106;-56
2021/01/31 05:30:28;;;;;;;;;;;;;;;0.61;54.07;95335.96;1709440;83;21216;-55
2021/01/31 05:33:07;;;;;;;9.03;6.40;;;;;;;0.61;53.95;95338.52;1732119;81;20246;-56
2021/01/31 05:35:40;;;;;;;10.32;6.37;;;;;;;0.62;54.16;95340.15;1731752;81;21070;-56
2021/01/31 05:38:10;;;;;;;9.88;6.78;;;;;;;0.62;54.15;95347.80;1729642;83;21533;-56
2021/01/31 05:40:44;;;;;;;10.78;7.33;;;;;;;0.63;54.27;95350.74;1755344;81;21212;-56
2021/01/31 05:43:16;;;;;;;12.45;7.17;;;;;;;0.66;54.21;95349.77;1706757;83;22291;-55
2021/01/31 05:45:44;;;;;;;13.75;7.87;;;;;;;0.69;54.24;95354.70;1707411;83;21596;-55
2021/01/31 05:48:26;;;;;;;10.85;7.65;;;;;;;0.70;54.08;95367.39;1729875;81;21153;-55
2021/01/31 05:50:53;;;;;;;10.50;7.17;;;;;;;0.71;54.02;95369.05;1728622;83;21173;-54
2021/01/31 05:53:37;;;;;;;10.32;7.15;;;;;;;0.72;54.22;95373.69;1719186;83;21164;-54
2021/01/31 05:56:26;;;;;;;9.73;6.35;;;;;;;0.73;54.10;95371.06;1727982;83;21425;-58
2021/01/31 05:59:08;;;;;;;49.83;28.57;;;;;;;0.75;54.23;95377.37;1726990;83;21596;-55
2021/01/31 06:01:58;;;;;;;23.87;13.28;;;;;;;0.81;54.34;95378.80;1705083;83;21519;-53
2021/01/31 06:04:26;;;;;;;26.33;11.75;;;;;;;0.87;54.24;95375.91;1720442;82;21063;-55
2021/01/31 06:07:10;;;;;;;13.10;7.85;;;;;;;0.88;54.31;95380.94;1724016;81;21099;-57
2021/01/31 06:09:49;;;;;;;17.67;10.00;;;;;;;0.88;54.24;95387.78;1707163;82;21197;-56
2021/01/31 06:12:25;;;;;;;13.65;8.03;;;;;;;0.88;54.19;95396.27;1724461;81;21066;-56
2021/01/31 06:15:04;;;;;;;13.00;7.70;;;;;;;0.89;54.32;95400.94;1721293;82;21102;-57
2021/01/31 06:17:33;;;;;;;14.53;8.43;;;;;;;0.91;54.38;95401.22;1722311;82;21146;-56
2021/01/31 06:20:11;;;;;;;17.02;9.93;;;;;;;0.91;54.39;95403.77;1723120;82;21193;-56
2021/01/31 06:22:48;;;;;;;16.32;8.25;;;;;;;0.95;54.20;95404.44;1711717;82;21208;-56
2021/01/31 06:25:30;;;;;;;10.95;7.40;;;;;;;0.94;53.93;95401.53;1720037;82;22015;-56
2021/01/31 06:28:13;;;;;;;15.08;8.40;;;;;;;0.89;54.08;95401.75;1706162;83;21054;-55
2021/01/31 06:30:53;;;;;;;15.43;9.75;;;;;;;0.90;54.32;95407.25;1723203;82;21124;-56
2021/01/31 06:33:20;;;;;;;14.45;9.20;;;;;;;0.96;54.35;95407.38;1723310;82;21178;-56
2021/01/31 06:35:52;;;;;;;14.73;8.85;;;;;;;0.99;54.44;95411.05;1721805;82;21383;-56
2021/01/31 06:38:28;;;;;;;18.12;9.30;;;;;;;1.02;54.26;95405.79;1718884;82;21166;-54
2021/01/31 06:41:30;;;;;;;15.78;9.60;;;;;;;1.00;54.15;95416.98;1721962;82;21090;-55
2021/01/31 06:44:14;;;;;;;14.07;8.60;;;;;;;0.94;54.37;95417.28;1723510;82;21115;-55
2021/01/31 06:46:50;;;;;;;12.18;8.50;;;;;;;0.93;54.63;95421.57;1713000;82;21161;-55
2021/01/31 06:49:51;;;;;;;15.58;10.05;;;;;;;1.03;54.68;95432.96;1719709;82;21456;-54
2021/01/31 06:52:45;;;;;;;14.68;9.50;;;;;;;1.03;54.68;95432.96;1720627;82;21092;-55
2021/01/31 06:55:54;;;;;;;14.38;9.60;;;;;;;1.10;54.54;95439.43;1722352;82;21581;-55
2021/01/31 06:58:39;;;;;;;152.67;77.30;;;;;;;1.14;54.38;95442.64;1721420;82;22049;-58
2021/01/31 07:01:15;;;;;;;374.48;143.35;;;;;;;1.15;54.53;95444.73;1671533;83;21476;-55
2021/01/31 07:04:04;;;;;;;44.88;19.23;;;;;;;1.25;54.47;95449.30;1722833;82;21386;-54
2021/01/31 07:07:18;;;;;;;27.75;14.30;;;;;;;1.29;54.14;95452.06;1735754;81;21949;-56
2021/01/31 07:10:32;;;;;;;41.45;19.05;;;;;;;1.33;54.29;95452.72;1731118;81;21082;-55
2021/01/31 07:13:31;;;;;;;26.90;12.88;;;;;;;1.31;54.12;95454.54;1728241;81;21762;-57
2021/01/31 07:16:19;;;;;;;25.15;13.22;;;;;;;1.28;54.13;95450.86;1732721;81;21090;-56
2021/01/31 07:19:10;;;;;;;21.07;12.18;;;;;;;1.30;54.44;95465.69;1734161;81;21393;-57
2021/01/31 07:21:45;;;;;;;18.77;10.55;;;;;;;1.40;54.32;95467.31;1728053;81;21117;-55
2021/01/31 07:24:18;;;;;;;15.23;9.75;;;;;;;1.40;54.32;95467.31;1734925;81;21144;-55
2021/01/31 07:27:04;;;;;;;16.85;10.60;;;;;;;1.36;54.29;95478.12;1724759;81;21522;-56
2021/01/31 07:29:37;;;;;;;19.02;11.43;;;;;;;1.36;54.29;95478.12;1722884;81;21505;-56
2021/01/31 07:32:10;;;;;;;18.52;11.33;;;;;;;1.39;54.64;95493.30;1707041;82;22280;-55
2021/01/31 07:34:45;;;;;;;14.83;9.55;;;;;;;1.40;54.63;95486.02;1729259;81;21193;-56
2021/01/31 07:37:16;;;;;;;14.20;9.80;;;;;;;1.45;54.27;95498.11;1728401;81;21205;-56
2021/01/31 07:40:07;;;;;;;14.63;9.63;;;;;;;1.39;54.40;95493.77;1727067;81;21134;-56
2021/01/31 07:42:37;;;;;;;13.28;9.70;;;;;;;1.19;54.21;95504.55;1722731;81;21113;-56
2021/01/31 07:45:23;;;;;;;13.65;9.50;;;;;;;1.19;54.21;95504.55;1707320;82;21394;-55
2021/01/31 07:48:12;;;;;;;14.35;10.18;;;;;;;1.14;54.64;95510.34;1729610;81;21205;-55
2021/01/31 07:50:40;;;;;;;17.25;11.15;;;;;;;1.14;54.89;95509.07;1699007;81;21650;-56
2021/01/31 07:53:09;;;;;;;18.17;11.90;;;;;;;1.21;55.12;95504.48;1727984;81;21085;-56
2021/01/31 07:55:43;;;;;;;20.63;12.43;;;;;;;1.28;55.00;95510.48;1726583;81;21163;-58
2021/01/31 07:58:28;;;;;;;18.35;12.40;;;;;;;1.33;55.36;95521.73;1727527;81;22399;-57
2021/01/31 08:00:57;;;;;;;18.85;11.90;;;;;;;1.35;54.97;95526.33;1727686;81;21153;-55
2021/01/31 08:03:33;;;;;;;21.15;13.20;;;;;;;1.35;54.97;95526.33;1724958;81;21150;-57
2021/01/31 08:06:20;;;;;;;22.90;13.78;;;;;;;1.36;55.13;95524.59;1713682;82;21165;-57
2021/01/31 08:08:53;;;;;;;25.88;14.60;;;;;;;1.43;55.14;95521.66;1712570;82;21063;-56
2021/01/31 08:11:38;;;;;;;27.27;14.78;;;;;;;1.58;55.12;95524.30;1709135;82;21219;-55
2021/01/31 08:14:07;;;;;;;23.00;13.78;;;;;;;1.66;54.70;95527.28;1709157;82;21225;-56
2021/01/31 08:16:54;;;;;;;19.42;12.82;;;;;;;1.66;54.70;95527.28;1710292;82;21158;-55
2021/01/31 08:19:28;;;;;;;19.12;11.93;;;;;;;1.72;54.65;95538.48;1713555;82;21148;-55
2021/01/31 08:22:13;;;;;;;17.85;12.20;;;;;;;1.73;54.49;95532.93;1713903;83;21103;-54
2021/01/31 08:25:07;;;;;;;22.22;13.38;;;;;;;1.72;54.48;95534.64;1693718;83;22391;-55
2021/01/31 08:27:43;;;;;;;20.72;12.88;;;;;;;1.72;54.49;95538.94;1689911;83;21225;-55
2021/01/31 08:30:42;;;;;;;20.10;13.22;;;;;;;1.70;54.73;95536.45;1694004;83;21094;-55
2021/01/31 08:33:28;;;;;;;16.50;12.53;;;;;;;1.70;54.64;95539.02;1696861;82;21190;-56
2021/01/31 08:36:10;;;;;;;18.62;12.80;;;;;;;1.66;54.79;95537.52;1703859;83;21210;-55
2021/01/31 08:38:42;;;;;;;20.90;13.60;;;;;;;1.63;54.93;95542.81;1697552;83;21185;-55
2021/01/31 08:41:34;;;;;;;17.80;12.63;;;;;;;1.61;54.93;95550.56;1692542;83;21126;-55
2021/01/31 08:44:16;;;;;;;21.20;13.55;;;;;;;1.59;55.07;95548.51;1705074;83;21130;-54
2021/01/31 08:47:02;;;;;;;19.87;13.35;;;;;;;1.53;55.04;95551.41;1695536;84;21188;-57
2021/01/31 08:49:29;;;;;;;19.45;13.05;;;;;;;1.43;55.14;95558.72;1674501;83;21096;-55
2021/01/31 08:52:02;;;;;;;19.80;13.50;;;;;;;1.39;55.52;95561.50;1691811;84;21235;-55
2021/01/31 08:54:29;;;;;;;22.22;13.85;;;;;;;1.38;55.61;95561.11;1666403;85;21616;-55
2021/01/31 08:57:08;;;;;;;23.65;15.32;;;;;;;1.31;55.64;95550.84;1672255;85;21580;-56
2021/01/31 08:59:46;;;;;;;23.22;13.80;;;;;;;1.25;55.90;95555.36;1646421;87;21548;-56
2021/01/31 09:02:19;;;;;;;19.77;13.30;;;;;;;1.27;56.19;95558.66;1651869;85;21145;-57
2021/01/31 09:05:11;;;;;;;19.45;13.13;;;;;;;1.25;56.33;95558.34;1670823;84;21299;-58
2021/01/31 09:07:44;;;;;;;20.12;13.22;;;;;;;1.19;56.46;95565.87;1673160;84;21538;-56
2021/01/31 09:10:26;;;;;;;20.50;13.70;;;;;;;1.15;56.02;95553.33;1634725;87;21585;-56
2021/01/31 09:13:27;;;;;;;18.67;12.58;;;;;;;1.15;56.02;95553.33;1691672;83;21191;-55
2021/01/31 09:16:23;;;;;;;17.62;10.65;;;;;;;1.10;56.17;95549.72;1708263;83;21143;-56
2021/01/31 09:19:17;;;;;;;16.20;9.95;;;;;;;1.08;55.16;95552.80;1687593;83;22450;-55
2021/01/31 09:21:46;;;;;;;15.50;9.48;;;;;;;1.13;54.76;95557.70;1691841;82;21174;-55
2021/01/31 09:24:15;;;;;;;15.25;9.60;;;;;;;1.18;54.06;95552.72;1712005;83;21588;-57
2021/01/31 09:26:52;;;;;;;16.62;9.85;;;;;;;1.18;54.06;95552.72;1712113;83;21170;-55
2021/01/31 09:29:24;;;;;;;17.92;10.40;;;;;;;1.20;53.92;95553.92;1696053;83;21177;-55
2021/01/31 09:32:32;;;;;;;18.32;10.88;;;;;;;1.17;53.54;95541.29;1643424;84;21172;-54
2021/01/31 09:35:00;;;;;;;18.30;10.72;;;;;;;1.20;53.55;95548.38;1683442;85;22081;-54
2021/01/31 09:37:30;;;;;;;;;;;;;;;1.26;53.88;95556.17;1694606;83;21077;-55
2021/01/31 09:40:01;;;;;;;16.73;9.78;;;;;;;1.35;53.70;95551.89;1710788;82;20239;-55
2021/01/31 09:42:32;;;;;;;17.48;10.05;;;;;;;1.43;53.12;95557.87;1702894;83;21098;-55
2021/01/31 09:45:29;;;;;;;15.45;9.18;;;;;;;1.49;52.72;95549.08;1697649;83;21238;-55
2021/01/31 09:47:56;;;;;;;15.68;9.95;;;;;;;1.57;52.24;95547.77;1712161;83;21499;-56
2021/01/31 09:50:24;;;;;;;18.82;10.70;;;;;;;1.64;51.95;95551.69;1685914;83;21142;-55
2021/01/31 09:52:52;;;;;;;18.17;11.05;;;;;;;1.67;51.74;95556.26;1673348;84;21176;-55
2021/01/31 09:55:39;;;;;;;18.40;13.10;;;;;;;1.71;51.88;95553.90;1661735;85;21114;-56
2021/01/31 09:58:20;;;;;;;15.35;9.95;;;;;;;1.71;51.59;95550.91;1695755;83;21382;-56
2021/01/31 10:00:48;;;;;;;14.38;9.60;;;;;;;1.76;51.63;95553.20;1662593;86;21144;-55
2021/01/31 10:03:24;;;;;;;17.62;10.10;;;;;;;1.76;51.63;95553.20;1666009;84;21112;-56
2021/01/31 10:06:07;;;;;;;14.58;9.00;;;;;;;1.84;51.73;95562.58;1705221;84;21633;-56
2021/01/31 10:08:36;;;;;;;12.28;8.05;;;;;;;1.83;50.63;95557.11;1686441;84;21064;-56
2021/01/31 10:11:27;;;;;;;14.58;8.43;;;;;;;1.83;50.63;95557.11;1707673;84;21216;-55
2021/01/31 10:13:54;;;;;;;10.85;7.90;;;;;;;1.81;50.68;95557.66;1682668;84;21167;-56
2021/01/31 10:16:31;;;;;;;11.63;8.25;;;;;;;1.86;50.20;95556.11;1707638;84;21152;-56
2021/01/31 10:19:21;;;;;;;12.98;8.65;;;;;;;1.84;50.42;95554.48;1728828;83;21121;-56
2021/01/31 10:21:53;;;;;;;12.78;8.28;;;;;;;1.82;50.39;95551.14;1714288;81;21093;-57
2021/01/31 10:24:32;;;;;;;13.85;8.90;;;;;;;1.84;50.15;95558.74;1721263;83;21585;-55
2021/01/31 10:27:13;;;;;;;12.20;8.80;;;;;;;1.82;49.91;95565.68;1730468;83;21495;-55
2021/01/31 10:29:41;;;;;;;12.95;8.28;;;;;;;1.73;49.98;95569.55;1729609;83;21180;-54
2021/01/31 10:32:37;;;;;;;13.88;8.83;;;;;;;1.77;50.09;95564.63;1730250;83;21070;-55
2021/01/31 10:35:37;;;;;;;10.90;8.60;;;;;;;1.87;49.92;95570.56;1715696;81;21584;-56
2021/01/31 10:38:30;;;;;;;12.98;9.05;;;;;;;1.87;49.92;95570.56;1722615;83;23006;-55
2021/01/31 10:40:59;;;;;;;13.48;9.15;;;;;;;1.82;50.47;95570.33;1716689;83;21550;-55
2021/01/31 10:43:27;;;;;;;11.97;8.00;;;;;;;1.79;50.17;95569.67;1730267;83;21165;-55
2021/01/31 10:45:54;;;;;;;13.60;8.50;;;;;;;1.77;50.19;95580.44;1706571;83;21168;-55
2021/01/31 10:48:22;;;;;;;12.73;8.30;;;;;;;1.75;50.19;95579.23;1701923;83;21123;-55
2021/01/31 10:50:50;;;;;;;11.73;8.15;;;;;;;1.79;49.78;95577.34;1702905;83;21408;-56
2021/01/31 10:53:17;;;;;;;13.93;8.93;;;;;;;1.83;49.48;95580.13;1720234;83;21113;-55
2021/01/31 10:55:46;;;;;;;11.63;8.33;;;;;;;1.86;49.41;95578.70;1730164;83;21078;-55
2021/01/31 10:58:14;;;;;;;13.58;8.63;;;;;;;1.83;49.64;95580.95;1688336;84;21145;-56
2021/01/31 11:00:42;;;;;;;16.67;10.48;;;;;;;1.83;49.93;95578.85;1723829;81;21141;-55
2021/01/31 11:03:09;;;;;;;13.98;9.75;;;;;;;1.86;49.94;95581.25;1730275;83;21878;-56
2021/01/31 11:05:37;;;;;;;11.80;8.73;;;;;;;1.86;49.94;95581.25;1691863;83;21508;-56
2021/01/31 11:08:05;;;;;;;14.93;9.43;;;;;;;1.86;50.15;95582.53;1681382;83;21544;-55
2021/01/31 11:10:33;;;;;;;15.15;9.50;;;;;;;1.83;50.32;95580.95;1708011;83;21168;-55
2021/01/31 11:13:01;;;;;;;13.43;8.58;;;;;;;1.89;50.16;95582.81;1693428;83;21694;-56
2021/01/31 11:15:29;;;;;;;13.57;9.37;;;;;;;1.96;49.95;95582.88;1681059;84;21359;-55
2021/01/31 11:17:57;;;;;;;16.43;11.93;;;;;;;2.00;50.08;95576.68;1680551;84;21727;-56
2021/01/31 11:20:25;;;;;;;13.07;9.20;;;;;;;2.02;49.73;95565.91;1701920;83;21080;-55
2021/01/31 11:22:52;;;;;;;15.40;9.25;;;;;;;2.03;49.63;95567.11;1687424;84;21170;-55
2021/01/31 11:25:21;;;;;;;12.23;9.10;;;;;;;2.01;49.49;95565.09;1708393;83;21040;-55
2021/01/31 11:27:48;;;;;;;13.40;9.15;;;;;;;2.01;49.33;95562.53;1699584;84;21206;-56
2021/01/31 11:30:18;;;;;;;14.63;9.37;;;;;;;2.06;49.05;95564.03;1660146;86;21125;-56
2021/01/31 11:32:45;;;;;;;11.73;8.98;;;;;;;2.08;49.33;95568.14;1687256;84;21055;-56
2021/01/31 11:35:12;;;;;;;14.30;8.88;;;;;;;2.10;49.19;95568.06;1634715;87;21168;-55
2021/01/31 11:37:40;;;;;;;13.60;9.10;;;;;;;2.09;48.83;95570.24;1670858;83;21789;-55
2021/01/31 11:40:09;;;;;;;12.28;9.00;;;;;;;2.11;48.84;95567.98;1677323;84;21252;-56
2021/01/31 11:42:36;;;;;;;13.90;8.80;;;;;;;2.06;48.54;95566.59;1703157;83;21084;-57
2021/01/31 11:45:06;;;;;;;10.93;7.90;;;;;;;2.02;48.84;95574.86;1704199;83;21182;-55
2021/01/31 11:47:35;;;;;;;12.23;9.08;;;;;;;2.02;49.09;95575.70;1690160;84;21130;-56
2021/01/31 11:50:06;;;;;;;12.80;8.70;;;;;;;2.06;49.00;95576.36;1700439;84;21191;-55
2021/01/31 11:52:33;;;;;;;12.75;8.75;;;;;;;2.05;48.82;95589.23;1687838;83;21383;-56
2021/01/31 11:55:01;;;;;;;13.43;9.13;;;;;;;2.02;48.95;95588.50;1707246;84;21210;-56
2021/01/31 11:57:28;;;;;;;11.53;8.40;;;;;;;2.04;48.65;95589.70;1708294;84;21043;-56
2021/01/31 11:59:56;;;;;;;13.05;8.60;;;;;;;2.10;48.55;95584.70;1708356;83;21501;-55
2021/01/31 12:02:24;;;;;;;13.60;8.98;;;;;;;2.18;48.33;95587.67;1687704;84;21139;-56
2021/01/31 12:04:51;;;;;;;12.88;8.68;;;;;;;2.21;48.71;95590.08;1700908;82;22559;-55
2021/01/31 12:07:19;;;;;;;12.53;8.78;;;;;;;2.25;48.62;95596.67;1712795;82;21089;-55
2021/01/31 12:09:46;;;;;;;12.50;8.63;;;;;;;2.21;48.58;95592.64;1731360;82;21089;-55
2021/01/31 12:12:17;;;;;;;14.03;9.05;;;;;;;2.18;48.50;95589.77;1728783;82;21521;-55
2021/01/31 12:14:45;;;;;;;13.48;9.50;;;;;;;2.18;48.82;95597.45;1718451;82;21089;-57
2021/01/31 12:17:13;;;;;;;15.23;9.18;;;;;;;2.19;48.94;95594.00;1735386;82;21165;-56